createdAt,value
2019-03-09T00:02:23.736Z,12.55
2019-03-09T00:04:54.525Z,12.85
2019-03-09T00:07:24.892Z,12.28
2019-03-09T00:09:55.215Z,12.50
2019-03-09T00:12:25.493Z,13.40
2019-03-09T00:15:02.200Z,13.75
2019-03-09T00:17:33.191Z,12.45
2019-03-09T00:20:04.065Z,12.45
2019-03-09T00:22:34.399Z,11.88
2019-03-09T00:25:09.178Z,12.33
2019-03-09T00:27:41.820Z,11.70
2019-03-09T00:30:14.370Z,12.15
2019-03-09T00:32:44.711Z,13.18
2019-03-09T00:35:15.258Z,14.30
2019-03-09T00:37:45.571Z,14.75
2019-03-09T00:40:15.907Z,14.93
2019-03-09T00:42:46.359Z,14.25
2019-03-09T00:45:17.036Z,14.93
2019-03-09T00:47:47.585Z,15.25
2019-03-09T00:50:17.817Z,15.05
2019-03-09T00:52:48.349Z,14.55
2019-03-09T00:55:18.629Z,15.38
2019-03-09T00:57:48.991Z,15.03
2019-03-09T01:00:19.810Z,15.70
2019-03-09T01:02:51.169Z,15.28
2019-03-09T01:05:21.652Z,14.68
2019-03-09T01:07:52.215Z,14.28
2019-03-09T01:10:22.468Z,14.47
2019-03-09T01:12:52.795Z,13.90
2019-03-09T01:15:24.108Z,14.43
2019-03-09T01:17:54.723Z,13.28
2019-03-09T01:20:24.460Z,13.35
2019-03-09T01:22:54.920Z,13.28
2019-03-09T01:25:25.124Z,12.65
2019-03-09T01:27:55.923Z,13.43
2019-03-09T01:30:26.199Z,13.35
2019-03-09T01:32:56.567Z,13.08
2019-03-09T01:35:26.877Z,13.20
2019-03-09T01:37:57.333Z,13.93
2019-03-09T01:40:27.650Z,13.45
2019-03-09T01:42:57.936Z,14.18
2019-03-09T01:45:34.401Z,14.33
2019-03-09T01:48:04.562Z,14.10
2019-03-09T01:50:34.956Z,14.53
2019-03-09T01:53:05.175Z,15.80
2019-03-09T01:55:35.374Z,14.20
2019-03-09T01:58:06.137Z,15.48
2019-03-09T02:00:36.436Z,15.53
2019-03-09T02:03:06.906Z,14.58
2019-03-09T02:05:37.310Z,14.68
2019-03-09T02:08:07.629Z,14.47
2019-03-09T02:10:38.218Z,14.73
2019-03-09T02:13:08.711Z,15.18
2019-03-09T02:15:39.170Z,15.25
2019-03-09T02:18:09.707Z,14.50
2019-03-09T02:20:40.196Z,14.75
2019-03-09T02:23:10.639Z,15.48
2019-03-09T02:25:40.835Z,16.10
2019-03-09T02:28:11.564Z,15.88
2019-03-09T02:30:41.857Z,16.35
2019-03-09T02:33:12.535Z,16.75
2019-03-09T02:35:42.796Z,15.90
2019-03-09T02:38:14.866Z,16.23
2019-03-09T02:40:44.317Z,15.83
2019-03-09T02:43:14.697Z,16.77
2019-03-09T02:45:45.011Z,16.60
2019-03-09T02:48:15.678Z,17.75
2019-03-09T02:50:56.512Z,17.45
2019-03-09T02:53:27.427Z,17.32
2019-03-09T02:55:58.885Z,17.20
2019-03-09T02:58:29.331Z,17.57
2019-03-09T03:01:01.224Z,16.73
2019-03-09T03:03:32.936Z,17.00
2019-03-09T03:06:03.240Z,17.10
2019-03-09T03:08:33.669Z,16.10
2019-03-09T03:11:03.970Z,16.73
2019-03-09T03:13:34.316Z,16.20
2019-03-09T03:16:04.617Z,16.62
2019-03-09T03:18:34.911Z,17.17
2019-03-09T03:21:05.153Z,16.48
2019-03-09T03:23:38.613Z,16.67
2019-03-09T03:26:08.941Z,16.52
2019-03-09T03:28:39.235Z,16.57
2019-03-09T03:31:09.610Z,16.90
2019-03-09T03:33:39.921Z,17.48
2019-03-09T03:36:10.635Z,16.85
2019-03-09T03:38:40.935Z,17.57
2019-03-09T03:41:11.241Z,16.97
2019-03-09T03:43:41.572Z,17.52
2019-03-09T03:46:12.419Z,17.45
2019-03-09T03:48:42.725Z,16.75
2019-03-09T03:51:13.033Z,16.95
2019-03-09T03:53:43.264Z,17.67
2019-03-09T03:56:13.628Z,18.15
2019-03-09T03:58:44.057Z,16.97
2019-03-09T04:01:15.977Z,16.62
2019-03-09T04:03:46.344Z,16.40
2019-03-09T04:06:16.989Z,16.25
2019-03-09T04:08:47.323Z,16.65
2019-03-09T04:11:18.107Z,17.20
2019-03-09T04:13:48.820Z,15.85
2019-03-09T04:16:19.805Z,14.55
2019-03-09T04:18:50.038Z,15.30
2019-03-09T04:21:20.388Z,13.25
2019-03-09T04:23:50.975Z,13.93
2019-03-09T04:26:21.324Z,13.93
2019-03-09T04:28:51.789Z,13.50
2019-03-09T04:31:22.234Z,13.20
2019-03-09T04:33:52.758Z,13.22
2019-03-09T04:36:23.116Z,13.10
2019-03-09T04:38:53.471Z,13.03
2019-03-09T04:41:24.031Z,12.88
2019-03-09T04:43:55.375Z,12.73
2019-03-09T04:46:25.614Z,12.88
2019-03-09T04:48:55.924Z,12.55
2019-03-09T04:51:26.576Z,12.03
2019-03-09T04:53:56.820Z,12.05
2019-03-09T04:56:27.122Z,12.07
2019-03-09T04:58:57.770Z,12.10
2019-03-09T05:01:28.089Z,12.65
2019-03-09T05:04:03.892Z,11.85
2019-03-09T05:06:34.111Z,12.07
2019-03-09T05:09:07.400Z,12.20
2019-03-09T05:11:37.800Z,11.40
2019-03-09T05:14:08.056Z,10.95
2019-03-09T05:16:39.256Z,11.10
2019-03-09T05:19:09.712Z,10.80
2019-03-09T05:21:39.953Z,12.03
2019-03-09T05:24:11.248Z,13.65
2019-03-09T05:26:45.116Z,16.20
2019-03-09T05:29:15.669Z,17.67
2019-03-09T05:31:46.018Z,16.57
2019-03-09T05:34:17.306Z,15.58
2019-03-09T05:36:47.598Z,14.30
2019-03-09T05:39:22.093Z,11.48
2019-03-09T05:41:52.324Z,12.20
2019-03-09T05:44:22.687Z,15.70
2019-03-09T05:46:52.920Z,18.02
2019-03-09T05:49:23.412Z,15.78
2019-03-09T05:52:13.412Z,10.82
2019-03-09T05:54:43.939Z,8.85
2019-03-09T05:57:14.186Z,6.95
2019-03-09T05:59:44.564Z,6.60
2019-03-09T06:02:14.857Z,6.47
2019-03-09T06:04:45.175Z,6.80
2019-03-09T06:07:15.474Z,7.08
2019-03-09T06:09:45.983Z,6.78
2019-03-09T06:12:16.199Z,7.33
2019-03-09T06:14:46.622Z,7.12
2019-03-09T06:17:16.921Z,7.53
2019-03-09T06:19:47.143Z,6.53
2019-03-09T06:22:17.397Z,7.22
2019-03-09T06:24:47.691Z,6.92
2019-03-09T06:27:17.993Z,6.60
2019-03-09T06:29:48.207Z,7.10
2019-03-09T06:32:36.712Z,6.50
2019-03-09T06:35:15.323Z,7.22
2019-03-09T06:37:51.164Z,6.50
2019-03-09T06:40:21.440Z,5.95
2019-03-09T06:42:51.740Z,6.20
2019-03-09T06:45:23.110Z,5.83
2019-03-09T06:47:53.412Z,5.60
2019-03-09T06:50:23.600Z,5.35
2019-03-09T06:52:54.582Z,6.35
2019-03-09T06:55:24.875Z,6.17
2019-03-09T06:57:55.088Z,5.12
2019-03-09T07:00:36.386Z,4.85
2019-03-09T07:03:06.780Z,5.30
2019-03-09T07:05:37.043Z,5.10
2019-03-09T07:08:07.268Z,4.65
2019-03-09T07:10:37.576Z,4.03
2019-03-09T07:13:07.798Z,3.92
2019-03-09T07:15:42.182Z,3.75
2019-03-09T07:18:17.065Z,3.42
2019-03-09T07:20:47.542Z,3.40
2019-03-09T07:23:17.799Z,5.17
2019-03-09T07:25:49.209Z,4.40
2019-03-09T07:28:19.455Z,3.52
2019-03-09T07:30:49.787Z,3.90
2019-03-09T07:33:20.084Z,3.17
2019-03-09T07:35:50.361Z,3.55
2019-03-09T07:38:20.695Z,3.77
2019-03-09T07:40:50.993Z,4.30
2019-03-09T07:43:21.208Z,3.77
2019-03-09T07:45:51.536Z,3.50
2019-03-09T07:48:35.744Z,3.35
2019-03-09T07:51:06.230Z,4.00
2019-03-09T07:53:36.630Z,3.65
2019-03-09T07:56:06.895Z,3.42
2019-03-09T07:58:37.206Z,3.60
2019-03-09T08:01:07.615Z,3.70
2019-03-09T08:03:37.907Z,3.33
2019-03-09T08:06:09.205Z,4.03
2019-03-09T08:08:39.499Z,3.80
2019-03-09T08:11:09.874Z,3.72
2019-03-09T08:13:40.273Z,3.85
2019-03-09T08:16:10.607Z,3.95
2019-03-09T08:18:41.112Z,3.75
2019-03-09T08:21:11.423Z,4.67
2019-03-09T08:23:41.814Z,3.50
2019-03-09T08:26:12.016Z,4.03
2019-03-09T08:28:42.340Z,3.70
2019-03-09T08:31:12.635Z,3.50
2019-03-09T08:33:42.952Z,3.27
2019-03-09T08:36:14.244Z,3.55
2019-03-09T08:38:44.590Z,3.60
2019-03-09T08:41:14.950Z,3.60
2019-03-09T08:43:45.285Z,3.37
2019-03-09T08:46:16.592Z,3.52
2019-03-09T08:48:46.915Z,3.33
2019-03-09T08:51:17.151Z,3.83
2019-03-09T08:53:47.571Z,4.37
2019-03-09T08:56:17.749Z,5.17
2019-03-09T08:58:48.122Z,4.30
2019-03-09T09:01:19.185Z,3.62
2019-03-09T09:03:49.582Z,3.52
2019-03-09T09:06:19.831Z,4.15
2019-03-09T09:08:50.249Z,3.90
2019-03-09T09:11:21.503Z,3.98
2019-03-09T09:13:51.945Z,4.72
2019-03-09T09:16:22.210Z,3.70
2019-03-09T09:18:52.431Z,4.33
2019-03-09T09:21:22.719Z,3.83
2019-03-09T09:23:53.007Z,4.60
2019-03-09T09:26:23.303Z,4.92
2019-03-09T09:28:53.605Z,5.10
2019-03-09T09:31:23.893Z,3.95
2019-03-09T09:33:54.129Z,4.12
2019-03-09T09:36:24.417Z,4.33
2019-03-09T09:38:54.631Z,3.70
2019-03-09T09:41:24.864Z,4.53
2019-03-09T09:43:55.075Z,4.20
2019-03-09T09:46:25.534Z,4.08
2019-03-09T09:48:55.836Z,3.70
2019-03-09T09:51:26.188Z,2.92
2019-03-09T09:53:56.517Z,3.20
2019-03-09T09:56:26.722Z,3.40
2019-03-09T09:58:56.991Z,2.75
2019-03-09T10:01:27.307Z,3.25
2019-03-09T10:03:57.536Z,3.08
2019-03-09T10:06:27.995Z,2.62
2019-03-09T10:08:58.207Z,3.05
2019-03-09T10:11:28.529Z,3.25
2019-03-09T10:13:58.829Z,3.22
2019-03-09T10:16:29.095Z,3.20
2019-03-09T10:18:59.501Z,3.33
2019-03-09T10:21:29.751Z,3.85
2019-03-09T10:24:00.030Z,3.80
2019-03-09T10:26:30.316Z,3.60
2019-03-09T10:29:00.519Z,4.80
2019-03-09T10:31:30.821Z,5.03
2019-03-09T10:34:01.112Z,4.50
2019-03-09T10:36:31.465Z,4.53
2019-03-09T10:39:01.759Z,4.25
2019-03-09T10:41:33.527Z,4.53
2019-03-09T10:44:03.800Z,3.60
2019-03-09T10:46:34.027Z,3.30
2019-03-09T10:49:04.346Z,3.30
2019-03-09T10:51:34.615Z,2.90
2019-03-09T10:54:04.899Z,2.98
2019-03-09T10:56:35.202Z,4.58
2019-03-09T10:59:05.624Z,2.90
2019-03-09T11:01:35.915Z,2.87
2019-03-09T11:04:06.407Z,3.25
2019-03-09T11:06:36.791Z,3.35
2019-03-09T11:09:07.769Z,3.67
2019-03-09T11:11:38.504Z,3.30
2019-03-09T11:14:08.835Z,6.00
2019-03-09T11:16:52.856Z,5.62
2019-03-09T11:21:52.476Z,4.55
2019-03-09T11:24:22.676Z,4.83
2019-03-09T11:26:52.920Z,5.10
2019-03-09T11:29:23.222Z,3.70
2019-03-09T11:31:53.394Z,3.40
2019-03-09T11:34:23.786Z,3.95
2019-03-09T11:36:53.942Z,3.10
2019-03-09T11:39:25.272Z,3.47
2019-03-09T11:41:55.558Z,3.70
2019-03-09T11:44:25.813Z,3.42
2019-03-09T11:46:56.096Z,3.92
2019-03-09T11:49:26.447Z,3.85
2019-03-09T11:51:56.636Z,5.03
2019-03-09T11:54:27.114Z,4.62
2019-03-09T11:56:57.340Z,4.03
2019-03-09T11:59:27.644Z,3.87
2019-03-09T12:02:00.052Z,4.50
2019-03-09T12:04:30.381Z,3.80
2019-03-09T12:07:02.585Z,3.95
2019-03-09T12:09:33.091Z,3.72
2019-03-09T12:12:04.645Z,4.12
2019-03-09T12:14:43.058Z,5.03
2019-03-09T12:17:13.587Z,4.10
2019-03-09T12:19:44.439Z,3.90
2019-03-09T12:22:14.860Z,3.12
2019-03-09T12:24:48.231Z,3.60
2019-03-09T12:27:18.423Z,3.20
2019-03-09T12:29:48.781Z,3.72
2019-03-09T12:32:19.223Z,3.80
2019-03-09T12:34:49.537Z,4.40
2019-03-09T12:37:19.834Z,4.22
2019-03-09T12:39:50.273Z,3.05
2019-03-09T12:42:20.522Z,4.10
2019-03-09T12:44:50.823Z,4.30
2019-03-09T12:47:21.121Z,4.30
2019-03-09T12:49:51.290Z,2.87
2019-03-09T12:52:21.607Z,3.10
2019-03-09T12:54:51.783Z,3.12
2019-03-09T12:57:23.352Z,4.47
2019-03-09T12:59:53.630Z,3.10
2019-03-09T13:02:23.909Z,2.98
2019-03-09T13:04:54.159Z,1.80
2019-03-09T13:07:24.451Z,2.00
2019-03-09T13:09:55.494Z,1.87
2019-03-09T13:12:25.896Z,1.87
2019-03-09T13:14:56.104Z,2.10
2019-03-09T13:17:29.396Z,2.70
2019-03-09T13:19:59.706Z,2.58
2019-03-09T13:22:30.057Z,2.77
2019-03-09T13:25:00.411Z,2.60
2019-03-09T13:27:32.069Z,2.30
2019-03-09T13:30:02.372Z,2.10
2019-03-09T13:32:33.550Z,3.27
2019-03-09T13:35:04.178Z,3.40
2019-03-09T13:37:34.487Z,2.62
2019-03-09T13:40:06.985Z,2.35
2019-03-09T13:42:37.686Z,2.10
2019-03-09T13:45:13.580Z,1.87
2019-03-09T13:47:43.981Z,2.52
2019-03-09T13:50:15.147Z,2.00
2019-03-09T13:52:45.539Z,2.05
2019-03-09T13:55:15.824Z,4.62
2019-03-09T13:57:46.120Z,2.50
2019-03-09T14:00:17.398Z,2.65
2019-03-09T14:02:47.788Z,3.00
2019-03-09T14:05:18.090Z,2.00
2019-03-09T14:07:48.544Z,3.72
2019-03-09T14:10:18.758Z,2.30
2019-03-09T14:12:49.154Z,2.72
2019-03-09T14:15:20.808Z,3.40
2019-03-09T14:17:51.102Z,4.15
2019-03-09T14:20:21.645Z,4.05
2019-03-09T14:22:51.992Z,3.62
2019-03-09T14:25:22.335Z,5.05
2019-03-09T14:27:53.357Z,4.60
2019-03-09T14:30:23.727Z,4.28
2019-03-09T14:32:54.029Z,4.28
2019-03-09T14:35:24.365Z,2.75
2019-03-09T14:37:54.601Z,4.08
2019-03-09T14:40:24.915Z,4.62
2019-03-09T14:42:55.221Z,5.00
2019-03-09T14:45:25.751Z,4.80
2019-03-09T14:47:56.490Z,4.03
2019-03-09T14:50:26.973Z,3.10
2019-03-09T14:52:57.369Z,3.37
2019-03-09T14:55:27.702Z,3.30
2019-03-09T14:57:58.059Z,3.55
2019-03-09T15:00:28.708Z,4.40
2019-03-09T15:02:58.999Z,5.08
2019-03-09T15:05:29.331Z,5.60
2019-03-09T15:07:59.653Z,7.67
2019-03-09T15:10:29.992Z,7.47
2019-03-09T15:13:00.300Z,6.70
2019-03-09T15:15:30.569Z,8.63
2019-03-09T15:18:00.864Z,4.20
2019-03-09T15:20:32.160Z,2.10
2019-03-09T15:23:02.484Z,1.75
2019-03-09T15:25:33.264Z,1.80
2019-03-09T15:28:03.580Z,2.45
2019-03-09T15:30:33.956Z,2.30
2019-03-09T15:33:04.191Z,2.55
2019-03-09T15:35:34.505Z,2.60
2019-03-09T15:38:04.784Z,2.77
2019-03-09T15:40:35.130Z,4.55
2019-03-09T15:43:05.418Z,4.15
2019-03-09T15:45:35.667Z,4.30
2019-03-09T15:48:05.949Z,4.58
2019-03-09T15:50:36.188Z,4.78
2019-03-09T15:53:06.504Z,6.25
2019-03-09T15:55:36.877Z,6.83
2019-03-09T15:58:07.165Z,7.37
2019-03-09T16:00:37.474Z,3.70
2019-03-09T16:03:07.750Z,4.28
2019-03-09T16:05:38.128Z,5.60
2019-03-09T16:08:08.416Z,6.65
2019-03-09T16:10:38.859Z,5.20
2019-03-09T16:13:09.726Z,4.97
2019-03-09T16:15:40.034Z,4.90
2019-03-09T16:18:10.430Z,4.65
2019-03-09T16:20:40.782Z,5.40
2019-03-09T16:23:11.015Z,5.53
2019-03-09T16:25:41.335Z,5.87
2019-03-09T16:28:12.632Z,7.22
2019-03-09T16:30:43.001Z,7.78
2019-03-09T16:33:13.377Z,7.80
2019-03-09T16:35:43.981Z,10.25
2019-03-09T16:38:14.316Z,13.20
2019-03-09T16:40:44.715Z,10.70
2019-03-09T16:43:15.109Z,15.40
2019-03-09T16:45:46.361Z,19.65
2019-03-09T16:48:16.709Z,14.80
2019-03-09T16:50:46.933Z,9.48
2019-03-09T16:53:18.322Z,9.20
2019-03-09T16:55:48.545Z,7.20
2019-03-09T16:58:18.859Z,7.87
2019-03-09T17:00:49.118Z,8.10
2019-03-09T17:03:19.346Z,7.83
2019-03-09T17:05:49.595Z,10.72
2019-03-09T17:08:19.993Z,14.95
2019-03-09T17:10:50.357Z,13.28
2019-03-09T17:13:20.682Z,11.38
2019-03-09T17:15:52.027Z,9.15
2019-03-09T17:18:22.647Z,7.60
2019-03-09T17:20:52.915Z,7.47
2019-03-09T17:23:23.272Z,8.75
2019-03-09T17:25:53.451Z,6.30
2019-03-09T17:28:23.780Z,4.10
2019-03-09T17:30:54.062Z,3.60
2019-03-09T17:33:24.313Z,3.17
2019-03-09T17:35:54.602Z,3.15
2019-03-09T17:38:24.932Z,3.02
2019-03-09T17:40:55.210Z,3.45
2019-03-09T17:43:25.572Z,4.50
2019-03-09T17:45:55.852Z,7.20
2019-03-09T17:48:26.172Z,8.03
2019-03-09T17:50:56.452Z,7.42
2019-03-09T17:53:26.716Z,7.97
2019-03-09T17:55:56.973Z,8.58
2019-03-09T17:58:27.327Z,9.18
2019-03-09T18:00:57.591Z,8.35
2019-03-09T18:03:27.954Z,7.87
2019-03-09T18:05:58.200Z,7.53
2019-03-09T18:08:28.544Z,4.62
2019-03-09T18:11:01.792Z,3.20
2019-03-09T18:13:32.112Z,2.10
2019-03-09T18:16:03.559Z,2.30
2019-03-09T18:18:34.064Z,2.20
2019-03-09T18:21:04.312Z,2.42
2019-03-09T18:23:34.631Z,2.98
2019-03-09T18:26:04.877Z,3.00
2019-03-09T18:28:35.172Z,3.87
2019-03-09T18:31:05.419Z,3.60
2019-03-09T18:33:35.695Z,3.60
2019-03-09T18:36:06.035Z,3.25
2019-03-09T18:38:36.782Z,3.85
2019-03-09T18:41:07.032Z,4.80
2019-03-09T18:43:37.440Z,5.37
2019-03-09T18:46:07.688Z,5.72
2019-03-09T18:48:38.439Z,6.17
2019-03-09T18:51:08.820Z,5.47
2019-03-09T18:53:39.241Z,4.70
2019-03-09T18:56:09.491Z,4.67
2019-03-09T18:58:39.828Z,5.28
2019-03-09T19:01:10.025Z,4.80
2019-03-09T19:03:40.339Z,4.60
2019-03-09T19:06:10.592Z,4.70
2019-03-09T19:08:40.853Z,5.40
2019-03-09T19:11:11.117Z,5.65
2019-03-09T19:13:41.451Z,6.37
2019-03-09T19:16:11.717Z,6.08
2019-03-09T19:18:41.947Z,5.90
2019-03-09T19:21:13.594Z,6.85
2019-03-09T19:23:44.124Z,7.35
2019-03-09T19:26:15.359Z,6.12
2019-03-09T19:28:45.747Z,8.58
2019-03-09T19:31:15.979Z,8.23
2019-03-09T19:33:46.212Z,8.70
2019-03-09T19:36:16.429Z,8.05
2019-03-09T19:38:46.723Z,7.78
2019-03-09T19:41:17.508Z,7.87
2019-03-09T19:43:47.712Z,7.42
2019-03-09T19:46:18.035Z,6.67
2019-03-09T19:48:49.232Z,7.78
2019-03-09T19:51:19.632Z,7.83
2019-03-09T19:53:49.926Z,7.83
2019-03-09T19:56:20.184Z,7.60
2019-03-09T19:58:50.589Z,6.75
2019-03-09T20:01:21.101Z,6.33
2019-03-09T20:03:51.320Z,6.97
2019-03-09T20:06:21.702Z,6.40
2019-03-09T20:08:55.824Z,5.70
2019-03-09T20:11:26.201Z,4.28
2019-03-09T20:13:56.535Z,4.05
2019-03-09T20:16:26.842Z,2.90
2019-03-09T20:18:57.127Z,2.70
2019-03-09T20:21:27.419Z,2.65
2019-03-09T20:23:57.694Z,3.30
2019-03-09T20:26:28.017Z,3.10
2019-03-09T20:28:58.342Z,6.30
2019-03-09T20:31:28.637Z,3.40
2019-03-09T20:33:58.920Z,4.47
2019-03-09T20:36:29.741Z,3.22
2019-03-09T20:38:59.982Z,2.50
2019-03-09T20:41:31.007Z,2.40
2019-03-09T20:44:01.263Z,2.33
2019-03-09T20:46:41.525Z,2.33
2019-03-09T20:49:04.931Z,2.22
2019-03-09T20:51:37.418Z,3.83
2019-03-09T20:54:07.098Z,3.55
2019-03-09T20:56:37.355Z,2.50
2019-03-09T20:59:07.652Z,2.02
2019-03-09T21:01:37.895Z,2.45
2019-03-09T21:04:08.183Z,2.37
2019-03-09T21:06:38.435Z,2.52
2019-03-09T21:09:09.043Z,2.80
2019-03-09T21:11:40.785Z,3.60
2019-03-09T21:14:11.464Z,3.55
2019-03-09T21:16:41.908Z,3.42
2019-03-09T21:19:12.238Z,2.70
2019-03-09T21:21:42.466Z,2.10
2019-03-09T21:24:12.748Z,1.60
2019-03-09T21:26:43.044Z,1.80
2019-03-09T21:29:13.262Z,1.62
2019-03-09T21:31:44.024Z,1.55
2019-03-09T21:34:14.257Z,1.30
2019-03-09T21:36:44.540Z,1.80
2019-03-09T21:39:14.817Z,1.67
2019-03-09T21:41:45.119Z,1.98
2019-03-09T21:44:15.534Z,2.20
2019-03-09T21:46:45.819Z,2.40
2019-03-09T21:49:16.078Z,2.22
2019-03-09T21:51:46.299Z,2.22
2019-03-09T21:54:16.700Z,2.42
2019-03-09T21:56:47.121Z,2.33
2019-03-09T21:59:18.282Z,2.85
2019-03-09T22:01:48.486Z,2.22
2019-03-09T22:04:18.815Z,1.98
2019-03-09T22:06:49.105Z,2.50
2019-03-09T22:09:19.439Z,2.05
2019-03-09T22:11:49.753Z,2.25
2019-03-09T22:14:19.997Z,1.90
2019-03-09T22:16:56.554Z,2.15
2019-03-09T22:19:23.229Z,2.02
2019-03-09T22:21:53.499Z,2.10
2019-03-09T22:24:23.817Z,2.50
2019-03-09T22:26:54.107Z,2.60
2019-03-09T22:29:24.355Z,2.60
2019-03-09T22:31:54.672Z,2.90
2019-03-09T22:34:25.178Z,3.17
2019-03-09T22:36:55.455Z,3.02
2019-03-09T22:39:25.932Z,2.92
2019-03-09T22:41:56.224Z,2.70
2019-03-09T22:44:26.551Z,3.58
2019-03-09T22:46:56.944Z,2.40
2019-03-09T22:49:27.281Z,2.10
2019-03-09T22:51:57.644Z,2.45
2019-03-09T22:54:27.902Z,1.87
2019-03-09T22:56:58.178Z,1.90
2019-03-09T22:59:28.519Z,2.10
2019-03-09T23:01:58.803Z,1.85
2019-03-09T23:04:29.164Z,1.82
2019-03-09T23:07:00.567Z,1.70
2019-03-09T23:09:31.518Z,1.45
2019-03-09T23:12:01.813Z,1.50
2019-03-09T23:14:32.060Z,1.60
2019-03-09T23:17:02.375Z,1.60
2019-03-09T23:19:32.684Z,1.40
2019-03-09T23:22:02.954Z,1.60
2019-03-09T23:24:33.331Z,1.50
2019-03-09T23:27:03.663Z,1.47
2019-03-09T23:29:34.977Z,1.30
2019-03-09T23:32:05.232Z,1.52
2019-03-09T23:34:35.535Z,1.37
2019-03-09T23:37:05.788Z,1.22
2019-03-09T23:39:36.056Z,1.30
2019-03-09T23:42:06.545Z,1.10
2019-03-09T23:44:36.833Z,1.10
2019-03-09T23:47:07.177Z,1.60
2019-03-09T23:49:37.460Z,1.30
2019-03-09T23:52:07.726Z,1.20
2019-03-09T23:54:38.007Z,1.10
2019-03-09T23:57:09.199Z,1.55
2019-03-09T23:59:39.425Z,1.30
